DLH205 EDDH-EHAM
Flight info
| Callsign | DLH205 |
|---|---|
| Flight time | 0h 43m |
| Altitude | 26000 |
| Route | WSN5G/33 WSN N125 BLUFA |
| Aircraft | A320/M-SDE3FGHIRWY/LB1 |
Departure
| Time | 2026-04-30 19:25 |
|---|---|
| Airport | Hamburg Helmut Schmidt Airport (EDDH) |
Arrival
| Time | 2026-04-30 20:09 |
|---|---|
| Airport | Amsterdam Airport Schiphol (EHAM) |
| Time | Latitude | Longitude | Altitude | Speed | Heading |
|---|---|---|---|---|---|
| 2026-04-30 18:45 | 53.63282 | 10.00377 | 51 ft | 0 kts | 85° |
| 2026-04-30 19:10 | 53.63281 | 10.00374 | 51 ft | 2 kts | 85° |
| 2026-04-30 19:10 | 53.63276 | 10.00286 | 51 ft | 4 kts | 83° |
| 2026-04-30 19:11 | 53.63273 | 10.00241 | 51 ft | 4 kts | 94° |
| 2026-04-30 19:11 | 53.63282 | 10.00205 | 51 ft | 0 kts | 176° |
| 2026-04-30 19:14 | 53.63263 | 10.00200 | 49 ft | 3 kts | 204° |
| 2026-04-30 19:15 | 53.63244 | 10.00183 | 51 ft | 5 kts | 200° |
| 2026-04-30 19:15 | 53.63107 | 10.00193 | 51 ft | 9 kts | 176° |
| 2026-04-30 19:15 | 53.63051 | 10.00169 | 49 ft | 8 kts | 212° |
| 2026-04-30 19:16 | 53.63009 | 10.00123 | 51 ft | 7 kts | 213° |
| 2026-04-30 19:16 | 53.62974 | 10.00085 | 51 ft | 5 kts | 213° |
| 2026-04-30 19:16 | 53.62929 | 10.00016 | 51 ft | 3 kts | 238° |
| 2026-04-30 19:17 | 53.62919 | 9.99987 | 51 ft | 2 kts | 238° |
| 2026-04-30 19:17 | 53.62916 | 9.99979 | 51 ft | 0 kts | 239° |
| 2026-04-30 19:18 | 53.62908 | 9.99957 | 51 ft | 6 kts | 239° |
| 2026-04-30 19:18 | 53.62892 | 9.99906 | 52 ft | 0 kts | 244° |
| 2026-04-30 19:22 | 53.62888 | 9.99894 | 50 ft | 5 kts | 244° |
| 2026-04-30 19:23 | 53.62876 | 9.99732 | 52 ft | 8 kts | 321° |
| 2026-04-30 19:24 | 53.62892 | 9.99718 | 53 ft | 1 kts | 335° |
| 2026-04-30 19:24 | 53.63012 | 9.99617 | 51 ft | 54 kts | 333° |
| 2026-04-30 19:24 | 53.64442 | 9.98368 | 61 ft | 166 kts | 334° |
| 2026-04-30 19:25 | 53.67606 | 9.95704 | 1704 ft | 190 kts | 335° |
| 2026-04-30 19:26 | 53.70163 | 9.93559 | 2662 ft | 220 kts | 334° |
| 2026-04-30 19:26 | 53.71700 | 9.89319 | 3959 ft | 242 kts | 263° |
| 2026-04-30 19:26 | 53.71313 | 9.86422 | 4392 ft | 264 kts | 251° |
| 2026-04-30 19:27 | 53.69917 | 9.80401 | 5000 ft | 279 kts | 247° |
| 2026-04-30 19:27 | 53.68536 | 9.74293 | 5010 ft | 279 kts | 249° |
| 2026-04-30 19:28 | 53.67891 | 9.71211 | 5011 ft | 279 kts | 250° |
| 2026-04-30 19:28 | 53.66621 | 9.64889 | 6483 ft | 287 kts | 250° |
| 2026-04-30 19:29 | 53.65277 | 9.58416 | 8129 ft | 296 kts | 243° |
| 2026-04-30 19:29 | 53.64200 | 9.55449 | 8950 ft | 299 kts | 232° |
| 2026-04-30 19:30 | 53.60481 | 9.46800 | 10400 ft | 312 kts | 232° |
| 2026-04-30 19:30 | 53.57739 | 9.40446 | 11020 ft | 354 kts | 232° |
| 2026-04-30 19:31 | 53.54790 | 9.33607 | 12362 ft | 366 kts | 232° |
| 2026-04-30 19:31 | 53.53289 | 9.30122 | 13093 ft | 370 kts | 232° |
| 2026-04-30 19:31 | 53.50229 | 9.23037 | 14447 ft | 379 kts | 232° |
| 2026-04-30 19:32 | 53.48674 | 9.19445 | 15079 ft | 382 kts | 232° |
| 2026-04-30 19:32 | 53.47100 | 9.15820 | 15704 ft | 386 kts | 232° |
| 2026-04-30 19:32 | 53.45512 | 9.12169 | 16332 ft | 389 kts | 232° |
| 2026-04-30 19:32 | 53.43906 | 9.08482 | 16952 ft | 393 kts | 232° |
| 2026-04-30 19:33 | 53.42285 | 9.04767 | 17560 ft | 396 kts | 232° |
| 2026-04-30 19:33 | 53.40651 | 9.01024 | 18176 ft | 400 kts | 233° |
| 2026-04-30 19:33 | 53.39020 | 8.97296 | 18754 ft | 404 kts | 232° |
| 2026-04-30 19:33 | 53.37329 | 8.93437 | 18823 ft | 405 kts | 232° |
| 2026-04-30 19:34 | 53.35690 | 8.89650 | 19119 ft | 408 kts | 236° |
| 2026-04-30 19:34 | 53.34301 | 8.85496 | 19378 ft | 410 kts | 246° |
| 2026-04-30 19:34 | 53.32310 | 8.76511 | 20450 ft | 414 kts | 250° |
| 2026-04-30 19:35 | 53.31308 | 8.71993 | 20990 ft | 415 kts | 250° |
| 2026-04-30 19:35 | 53.30298 | 8.67465 | 21539 ft | 417 kts | 250° |
| 2026-04-30 19:35 | 53.29285 | 8.62916 | 22060 ft | 419 kts | 250° |
| 2026-04-30 19:35 | 53.28270 | 8.58318 | 22569 ft | 421 kts | 250° |
| 2026-04-30 19:36 | 53.27259 | 8.53716 | 23068 ft | 424 kts | 250° |
| 2026-04-30 19:36 | 53.26247 | 8.49074 | 23555 ft | 426 kts | 251° |
| 2026-04-30 19:36 | 53.24395 | 8.39627 | 24410 ft | 430 kts | 254° |
| 2026-04-30 19:37 | 53.23539 | 8.34893 | 24813 ft | 432 kts | 254° |
| 2026-04-30 19:37 | 53.22675 | 8.30082 | 25215 ft | 434 kts | 254° |
| 2026-04-30 19:37 | 53.21792 | 8.25247 | 25605 ft | 436 kts | 254° |
| 2026-04-30 19:37 | 53.20888 | 8.20414 | 25991 ft | 438 kts | 253° |
| 2026-04-30 19:38 | 53.19964 | 8.15572 | 26326 ft | 438 kts | 253° |
| 2026-04-30 19:38 | 53.19036 | 8.10752 | 26403 ft | 433 kts | 253° |
| 2026-04-30 19:38 | 53.18123 | 8.05987 | 26416 ft | 428 kts | 253° |
| 2026-04-30 19:38 | 53.17232 | 8.01272 | 26416 ft | 427 kts | 253° |
| 2026-04-30 19:39 | 53.16343 | 7.96538 | 26415 ft | 426 kts | 253° |
| 2026-04-30 19:39 | 53.15457 | 7.91828 | 26415 ft | 426 kts | 253° |
| 2026-04-30 19:39 | 53.14569 | 7.87132 | 26413 ft | 426 kts | 253° |
| 2026-04-30 19:39 | 53.13676 | 7.82434 | 26416 ft | 426 kts | 253° |
| 2026-04-30 19:40 | 53.12776 | 7.77729 | 26415 ft | 426 kts | 253° |
| 2026-04-30 19:40 | 53.11887 | 7.73093 | 26412 ft | 426 kts | 253° |
| 2026-04-30 19:40 | 53.10987 | 7.68402 | 26412 ft | 426 kts | 253° |
| 2026-04-30 19:40 | 53.10085 | 7.63703 | 26405 ft | 425 kts | 252° |
| 2026-04-30 19:41 | 53.09182 | 7.59024 | 26414 ft | 425 kts | 252° |
| 2026-04-30 19:41 | 53.08273 | 7.54345 | 26418 ft | 425 kts | 252° |
| 2026-04-30 19:41 | 53.07362 | 7.49664 | 26413 ft | 424 kts | 252° |
| 2026-04-30 19:41 | 53.06452 | 7.44998 | 26414 ft | 424 kts | 252° |
| 2026-04-30 19:42 | 53.05540 | 7.40336 | 26416 ft | 423 kts | 252° |
| 2026-04-30 19:42 | 53.04638 | 7.35730 | 26412 ft | 423 kts | 252° |
| 2026-04-30 19:42 | 53.03727 | 7.31081 | 26405 ft | 423 kts | 252° |
| 2026-04-30 19:42 | 53.02815 | 7.26442 | 26403 ft | 423 kts | 252° |
| 2026-04-30 19:43 | 53.01897 | 7.21791 | 26398 ft | 423 kts | 252° |
| 2026-04-30 19:43 | 53.00976 | 7.17150 | 26397 ft | 423 kts | 251° |
| 2026-04-30 19:43 | 53.00043 | 7.12520 | 26394 ft | 423 kts | 251° |
| 2026-04-30 19:44 | 52.98154 | 7.03266 | 26381 ft | 423 kts | 251° |
| 2026-04-30 19:44 | 52.97208 | 6.98653 | 26378 ft | 423 kts | 250° |
| 2026-04-30 19:44 | 52.96259 | 6.94024 | 26376 ft | 423 kts | 250° |
| 2026-04-30 19:44 | 52.95310 | 6.89409 | 26375 ft | 426 kts | 250° |
| 2026-04-30 19:45 | 52.94347 | 6.84727 | 26386 ft | 432 kts | 250° |
| 2026-04-30 19:45 | 52.93376 | 6.80005 | 26386 ft | 434 kts | 250° |
| 2026-04-30 19:45 | 52.92372 | 6.75284 | 26385 ft | 434 kts | 246° |
| 2026-04-30 19:45 | 52.90974 | 6.70870 | 26385 ft | 433 kts | 239° |
| 2026-04-30 19:46 | 52.89506 | 6.66558 | 25665 ft | 426 kts | 239° |
| 2026-04-30 19:46 | 52.88541 | 6.63733 | 24893 ft | 426 kts | 239° |
| 2026-04-30 19:46 | 52.87086 | 6.59485 | 23852 ft | 422 kts | 239° |
| 2026-04-30 19:46 | 52.85646 | 6.55295 | 22749 ft | 416 kts | 238° |
| 2026-04-30 19:47 | 52.84240 | 6.51226 | 22450 ft | 400 kts | 238° |
| 2026-04-30 19:47 | 52.82882 | 6.47285 | 21916 ft | 389 kts | 238° |
| 2026-04-30 19:47 | 52.81550 | 6.43430 | 21034 ft | 384 kts | 238° |
| 2026-04-30 19:47 | 52.80227 | 6.39611 | 20199 ft | 383 kts | 237° |
| 2026-04-30 19:48 | 52.78905 | 6.35792 | 19718 ft | 382 kts | 237° |
| 2026-04-30 19:48 | 52.77588 | 6.32000 | 19271 ft | 380 kts | 237° |
| 2026-04-30 19:48 | 52.76272 | 6.28216 | 18819 ft | 378 kts | 237° |
| 2026-04-30 19:48 | 52.74964 | 6.24459 | 18342 ft | 377 kts | 237° |
| 2026-04-30 19:49 | 52.73661 | 6.20724 | 17864 ft | 375 kts | 237° |
| 2026-04-30 19:49 | 52.71078 | 6.13331 | 16972 ft | 369 kts | 237° |
| 2026-04-30 19:49 | 52.69800 | 6.09671 | 16539 ft | 367 kts | 237° |
| 2026-04-30 19:50 | 52.68530 | 6.06033 | 16114 ft | 364 kts | 237° |
| 2026-04-30 19:50 | 52.67271 | 6.02433 | 15698 ft | 362 kts | 236° |
| 2026-04-30 19:50 | 52.66016 | 5.98861 | 15326 ft | 358 kts | 236° |
| 2026-04-30 19:50 | 52.64785 | 5.95373 | 14932 ft | 355 kts | 236° |
| 2026-04-30 19:51 | 52.63547 | 5.91870 | 14532 ft | 353 kts | 236° |
| 2026-04-30 19:51 | 52.62315 | 5.88388 | 14135 ft | 351 kts | 236° |
| 2026-04-30 19:51 | 52.61089 | 5.84923 | 13692 ft | 349 kts | 236° |
| 2026-04-30 19:51 | 52.59870 | 5.81475 | 13253 ft | 347 kts | 236° |
| 2026-04-30 19:52 | 52.58656 | 5.78052 | 12821 ft | 345 kts | 236° |
| 2026-04-30 19:52 | 52.57446 | 5.74643 | 12132 ft | 350 kts | 236° |
| 2026-04-30 19:52 | 52.56210 | 5.71175 | 11245 ft | 349 kts | 236° |
| 2026-04-30 19:52 | 52.55015 | 5.67812 | 10841 ft | 333 kts | 236° |
| 2026-04-30 19:53 | 52.53881 | 5.64617 | 10578 ft | 314 kts | 236° |
| 2026-04-30 19:53 | 52.52802 | 5.61576 | 10154 ft | 304 kts | 236° |
| 2026-04-30 19:53 | 52.51742 | 5.58605 | 9999 ft | 300 kts | 235° |
| 2026-04-30 19:53 | 52.50823 | 5.55521 | 9873 ft | 303 kts | 246° |
| 2026-04-30 19:54 | 52.50118 | 5.52255 | 9737 ft | 303 kts | 247° |
| 2026-04-30 19:54 | 52.49419 | 5.48995 | 9605 ft | 302 kts | 247° |
| 2026-04-30 19:54 | 52.48722 | 5.45748 | 9485 ft | 300 kts | 246° |
| 2026-04-30 19:54 | 52.48028 | 5.42527 | 9358 ft | 299 kts | 246° |
| 2026-04-30 19:55 | 52.47334 | 5.39315 | 9226 ft | 299 kts | 246° |
| 2026-04-30 19:55 | 52.46640 | 5.36107 | 9097 ft | 298 kts | 246° |
| 2026-04-30 19:55 | 52.45947 | 5.32907 | 8969 ft | 298 kts | 246° |
| 2026-04-30 19:55 | 52.45254 | 5.29716 | 8832 ft | 297 kts | 246° |
| 2026-04-30 19:56 | 52.44561 | 5.26527 | 8712 ft | 297 kts | 246° |
| 2026-04-30 19:56 | 52.43870 | 5.23343 | 8574 ft | 296 kts | 246° |
| 2026-04-30 19:56 | 52.43180 | 5.20164 | 8456 ft | 296 kts | 246° |
| 2026-04-30 19:56 | 52.42490 | 5.16994 | 8332 ft | 295 kts | 246° |
| 2026-04-30 19:57 | 52.41799 | 5.13828 | 8200 ft | 295 kts | 246° |
| 2026-04-30 19:57 | 52.41107 | 5.10669 | 8082 ft | 294 kts | 246° |
| 2026-04-30 19:57 | 52.40415 | 5.07521 | 7953 ft | 294 kts | 246° |
| 2026-04-30 19:57 | 52.39733 | 5.04420 | 7828 ft | 293 kts | 246° |
| 2026-04-30 19:58 | 52.39042 | 5.01281 | 7705 ft | 293 kts | 246° |
| 2026-04-30 19:58 | 52.38352 | 4.98150 | 7583 ft | 292 kts | 246° |
| 2026-04-30 19:58 | 52.37661 | 4.95022 | 7469 ft | 292 kts | 246° |
| 2026-04-30 19:58 | 52.36970 | 4.91891 | 7343 ft | 292 kts | 245° |
| 2026-04-30 19:59 | 52.36280 | 4.88769 | 7221 ft | 291 kts | 245° |
| 2026-04-30 19:59 | 52.35589 | 4.85660 | 7096 ft | 291 kts | 245° |
| 2026-04-30 19:59 | 52.34231 | 4.79551 | 6856 ft | 275 kts | 245° |
| 2026-04-30 20:00 | 52.33637 | 4.76640 | 6730 ft | 266 kts | 252° |
| 2026-04-30 20:00 | 52.33487 | 4.73650 | 6604 ft | 266 kts | 271° |
| 2026-04-30 20:00 | 52.33819 | 4.70672 | 6476 ft | 267 kts | 280° |
| 2026-04-30 20:00 | 52.34236 | 4.67718 | 6363 ft | 266 kts | 278° |
| 2026-04-30 20:01 | 52.33952 | 4.61914 | 6060 ft | 252 kts | 242° |
| 2026-04-30 20:01 | 52.33126 | 4.59447 | 5815 ft | 245 kts | 231° |
| 2026-04-30 20:01 | 52.32211 | 4.57108 | 5557 ft | 243 kts | 231° |
| 2026-04-30 20:02 | 52.30404 | 4.52453 | 5026 ft | 241 kts | 232° |
| 2026-04-30 20:02 | 52.29511 | 4.50145 | 4760 ft | 239 kts | 232° |
| 2026-04-30 20:03 | 52.27742 | 4.45626 | 4246 ft | 235 kts | 225° |
| 2026-04-30 20:03 | 52.26516 | 4.44045 | 4000 ft | 220 kts | 196° |
| 2026-04-30 20:03 | 52.25051 | 4.43672 | 3757 ft | 210 kts | 169° |
| 2026-04-30 20:03 | 52.23695 | 4.44419 | 3406 ft | 208 kts | 147° |
| 2026-04-30 20:04 | 52.22488 | 4.45738 | 3007 ft | 208 kts | 138° |
| 2026-04-30 20:04 | 52.21566 | 4.47533 | 2726 ft | 211 kts | 121° |
| 2026-04-30 20:04 | 52.21056 | 4.49757 | 2609 ft | 206 kts | 103° |
| 2026-04-30 20:05 | 52.21412 | 4.54209 | 2444 ft | 198 kts | 71° |
| 2026-04-30 20:05 | 52.22102 | 4.56081 | 2389 ft | 185 kts | 65° |
| 2026-04-30 20:05 | 52.23405 | 4.59443 | 2037 ft | 169 kts | 67° |
| 2026-04-30 20:06 | 52.24020 | 4.61034 | 1816 ft | 162 kts | 67° |
| 2026-04-30 20:06 | 52.24591 | 4.62506 | 1636 ft | 144 kts | 68° |
| 2026-04-30 20:06 | 52.25105 | 4.63835 | 1430 ft | 134 kts | 68° |
| 2026-04-30 20:06 | 52.25593 | 4.65104 | 1254 ft | 131 kts | 67° |
| 2026-04-30 20:07 | 52.26075 | 4.66356 | 1081 ft | 129 kts | 66° |
| 2026-04-30 20:07 | 52.26546 | 4.67578 | 917 ft | 129 kts | 67° |
| 2026-04-30 20:07 | 52.27510 | 4.70108 | 529 ft | 131 kts | 62° |
| 2026-04-30 20:08 | 52.27998 | 4.71353 | 383 ft | 130 kts | 61° |
| 2026-04-30 20:08 | 52.28475 | 4.72584 | 210 ft | 131 kts | 61° |
| 2026-04-30 20:08 | 52.28961 | 4.73844 | 31 ft | 131 kts | 62° |
| 2026-04-30 20:08 | 52.29396 | 4.74992 | -1 ft | 102 kts | 58° |
| 2026-04-30 20:09 | 52.29684 | 4.75739 | -4 ft | 53 kts | 57° |
| 2026-04-30 20:09 | 52.29811 | 4.76068 | -7 ft | 28 kts | 58° |
| 2026-04-30 20:09 | 52.30024 | 4.76530 | -3 ft | 22 kts | 34° |
| 2026-04-30 20:10 | 52.30186 | 4.76675 | -2 ft | 5 kts | 27° |
| 2026-04-30 20:10 | 52.30215 | 4.76698 | -2 ft | 4 kts | 25° |
| 2026-04-30 20:10 | 52.30238 | 4.76717 | -3 ft | 5 kts | 26° |
| 2026-04-30 20:11 | 52.30308 | 4.76759 | -3 ft | 3 kts | 320° |
| 2026-04-30 20:11 | 52.30332 | 4.76718 | -3 ft | 9 kts | 312° |
| 2026-04-30 20:11 | 52.30331 | 4.76610 | -2 ft | 10 kts | 248° |
| 2026-04-30 20:12 | 52.30401 | 4.76472 | -2 ft | 9 kts | 329° |
| 2026-04-30 20:12 | 52.30451 | 4.76420 | -2 ft | 8 kts | 327° |
| 2026-04-30 20:12 | 52.30496 | 4.76373 | -2 ft | 6 kts | 327° |
| 2026-04-30 20:13 | 52.30524 | 4.76342 | -2 ft | 4 kts | 321° |
| 2026-04-30 20:13 | 52.30529 | 4.76312 | -2 ft | 2 kts | 274° |
| 2026-04-30 20:13 | 52.30522 | 4.76283 | -2 ft | 3 kts | 239° |
| 2026-04-30 20:13 | 52.30515 | 4.76265 | -2 ft | 1 kts | 239° |
| 2026-04-30 20:14 | 52.30513 | 4.76259 | -2 ft | 1 kts | 238° |
| 2026-04-30 20:14 | 52.30510 | 4.76251 | -2 ft | 0 kts | 238° |